TAM3050 SBSP-SBCF
Flight info
| Callsign | TAM3050 |
|---|---|
| Flight time | N/A |
| Altitude | 33000 |
| Route | NUXEL UZ23 KIBAP |
| Aircraft | A320/M-SDE3FGHIRWY/LB1 |
Departure
| Time | 2026-05-08 00:23 |
|---|---|
| Airport | Congonhas–Deputado Freitas Nobre Airport (SBSP) |
Arrival
| Time | N/A |
|---|---|
| Airport | Tancredo Neves International Airport (SBCF) |
| Time | Latitude | Longitude | Altitude | Speed | Heading |
|---|---|---|---|---|---|
| 2026-05-07 23:55 | -23.62963 | -46.65842 | 2601 ft | 0 kts | 327° |
| 2026-05-07 23:57 | -23.62963 | -46.65841 | 2601 ft | 0 kts | 327° |
| 2026-05-08 00:00 | -23.62963 | -46.65842 | 2601 ft | 0 kts | 327° |
| 2026-05-08 00:00 | -23.62963 | -46.65841 | 2601 ft | 0 kts | 327° |
| 2026-05-08 00:16 | -23.62964 | -46.65841 | 2600 ft | 2 kts | 327° |
| 2026-05-08 00:16 | -23.62985 | -46.65827 | 2600 ft | 4 kts | 339° |
| 2026-05-08 00:16 | -23.63004 | -46.65825 | 2600 ft | 3 kts | 55° |
| 2026-05-08 00:16 | -23.63014 | -46.65842 | 2600 ft | 0 kts | 57° |
| 2026-05-08 00:19 | -23.63007 | -46.65830 | 2600 ft | 5 kts | 57° |
| 2026-05-08 00:19 | -23.62974 | -46.65774 | 2600 ft | 12 kts | 57° |
| 2026-05-08 00:19 | -23.62924 | -46.65689 | 2601 ft | 14 kts | 57° |
| 2026-05-08 00:20 | -23.62895 | -46.65598 | 2603 ft | 13 kts | 123° |
| 2026-05-08 00:20 | -23.62963 | -46.65550 | 2603 ft | 11 kts | 148° |
| 2026-05-08 00:20 | -23.63028 | -46.65521 | 2603 ft | 11 kts | 175° |
| 2026-05-08 00:20 | -23.63111 | -46.65484 | 2602 ft | 16 kts | 147° |
| 2026-05-08 00:21 | -23.63216 | -46.65411 | 2602 ft | 19 kts | 147° |
| 2026-05-08 00:21 | -23.63320 | -46.65339 | 2602 ft | 17 kts | 147° |
| 2026-05-08 00:21 | -23.63415 | -46.65273 | 2602 ft | 15 kts | 147° |
| 2026-05-08 00:21 | -23.63495 | -46.65216 | 2601 ft | 12 kts | 142° |
| 2026-05-08 00:22 | -23.63482 | -46.65146 | 2599 ft | 12 kts | 37° |
| 2026-05-08 00:22 | -23.63422 | -46.65123 | 2601 ft | 8 kts | 328° |
| 2026-05-08 00:22 | -23.63412 | -46.65129 | 2602 ft | 0 kts | 327° |
| 2026-05-08 00:22 | -23.63300 | -46.65207 | 2610 ft | 56 kts | 328° |
| 2026-05-08 00:23 | -23.62766 | -46.65576 | 2608 ft | 123 kts | 327° |
| 2026-05-08 00:23 | -23.61894 | -46.66172 | 2720 ft | 162 kts | 334° |
| 2026-05-08 00:23 | -23.60934 | -46.66805 | 3420 ft | 163 kts | 331° |
| 2026-05-08 00:23 | -23.59838 | -46.67250 | 3728 ft | 181 kts | 359° |
| 2026-05-08 00:24 | -23.58610 | -46.66680 | 3955 ft | 213 kts | 45° |
| 2026-05-08 00:24 | -23.58042 | -46.65145 | 4544 ft | 236 kts | 85° |
| 2026-05-08 00:24 | -23.58427 | -46.63347 | 5215 ft | 251 kts | 108° |
| 2026-05-08 00:24 | -23.59194 | -46.61638 | 5450 ft | 252 kts | 115° |
| 2026-05-08 00:25 | -23.59995 | -46.59921 | 5510 ft | 267 kts | 112° |
| 2026-05-08 00:25 | -23.60808 | -46.57990 | 5511 ft | 287 kts | 107° |
| 2026-05-08 00:25 | -23.61525 | -46.55939 | 5505 ft | 292 kts | 114° |
| 2026-05-08 00:25 | -23.62763 | -46.54134 | 5818 ft | 304 kts | 131° |
| 2026-05-08 00:26 | -23.64238 | -46.52496 | 6821 ft | 303 kts | 134° |
| 2026-05-08 00:26 | -23.65751 | -46.50878 | 7714 ft | 306 kts | 134° |
| 2026-05-08 00:26 | -23.67292 | -46.49261 | 8596 ft | 310 kts | 135° |
| 2026-05-08 00:26 | -23.68860 | -46.47623 | 9484 ft | 314 kts | 134° |
| 2026-05-08 00:27 | -23.70200 | -46.45743 | 10252 ft | 318 kts | 116° |
| 2026-05-08 00:27 | -23.70954 | -46.43418 | 10558 ft | 334 kts | 94° |
| 2026-05-08 00:27 | -23.70905 | -46.40882 | 11144 ft | 337 kts | 77° |
| 2026-05-08 00:27 | -23.70513 | -46.38347 | 11925 ft | 340 kts | 77° |
| 2026-05-08 00:28 | -23.70138 | -46.35786 | 12731 ft | 343 kts | 78° |
| 2026-05-08 00:28 | -23.69773 | -46.33211 | 13503 ft | 345 kts | 78° |
| 2026-05-08 00:28 | -23.69408 | -46.30613 | 14221 ft | 348 kts | 78° |